aviador You're here:

YSRI Decoded Metar

RICHMOND in AUSTRALIA
Report Time2017-08-19 11:00:00
UTC Time2017-08-19 11:12:01
Flight Rules vfr VFR
Wind230° at 05 kt
W.Decomp.*RWY 28: 2.3 kt HW 4.4 kt LCW
W.Rank230° ranks 7
Current wind is below 230° avg. (5.2)
Visibility9999 m
Phenomena:N/A
Clouds:N/A
Expected CloudBase > 2,400 ft AGL from Temp-Dew spread
CeilingNone
Temp09°C (ISA -6)
Dew Point03°C (66% RH)
AAT5.7°C
QNH1022 hPa
Density Alt-833 ft
Elevation69 ft
Report Wrong Elevation
Raw Report
METAR YSRI 191100Z AUTO 23005KT 9999 // NCD 09/03 Q1022
RF00.0/000.0 PRESENT WEATHER SENSOR US=

Extra information for YSRI:More info

Metar Taf Metar & Taf Last 4 Metars F.Rules Stats Wind Profile Meteogram Temp Stats Airport Information Weather charts Add Link Nearby VenuesMetar ALERT Operation Metar Decoded Social comments